Latest Weather Observations for Redesdale

IDV60801

Issued at 2:02 pm EST Saturday 28 May 2016 (issued every 30 minutes, with the page automatically refreshed every 10 minutes)

About weather observations | Map of weather stations | Latest weather observations for VIC | Other Formats
Station Details ID: 088051 Name: REDESDALE Lat: -37.02 Lon: 144.52 Height: 290.0 m
Data from the previous 72 hours. | See also: Recent months at Redesdale
Date/Time
EST
Temp
°C
App
Temp
°C
Dew
Point
Rel
Hum
%
Delta-T
°C
Wind Press
QNH
hPa
Press
MSL
hPa
Rain
since 9 am
mm
Dir
 
Spd
km/h
Gust
km/h
Spd
kts
Gust
kts
28/02:00pm 12.4 8.6 7.7 73 2.3 SSW 17 26 9 14 - - 0.2
28/01:30pm 10.4 5.3 7.6 83 1.4 SSW 24 37 13 20 - - 0.2
28/01:00pm 11.6 8.3 7.9 78 1.8 S 15 24 8 13 - - 0.2
28/12:30pm 10.2 6.0 7.4 83 1.4 SSW 19 33 10 18 - - 0.2
28/12:00pm 9.5 5.1 7.4 87 1.0 S 20 28 11 15 - - 0.0
28/11:30am 11.3 6.7 5.8 69 2.6 S 19 30 10 16 - - 0.0
28/11:00am 10.7 6.3 6.6 76 2.0 S 19 28 10 15 - - 0.0
28/10:30am 11.0 7.0 6.7 75 2.1 S 17 24 9 13 - - 0.0
28/10:00am 9.2 4.1 6.1 81 1.4 S 22 33 12 18 - - 0.0
28/09:30am 9.7 6.8 6.4 80 1.6 SSW 11 20 6 11 - - 0.0
28/09:00am 9.2 5.8 5.9 80 1.5 SSW 13 19 7 10 - - 0.6
28/08:30am 7.0 5.9 5.3 89 0.8 CALM 0 4 0 2 - - 0.6
28/08:00am 5.1 3.0 3.9 92 0.5 W 4 9 2 5 - - 0.6
28/07:30am 5.2 2.7 3.9 91 0.6 SW 6 9 3 5 - - 0.6
28/07:00am 6.1 2.4 4.3 88 0.8 SSW 13 17 7 9 - - 0.6
28/06:30am 5.9 2.1 3.9 87 0.9 SSW 13 17 7 9 - - 0.6
28/06:00am 5.9 2.1 3.9 87 0.9 SSW 13 15 7 8 - - 0.6
28/05:30am 6.0 2.6 4.2 88 0.8 S 11 17 6 9 - - 0.6
28/05:00am 6.5 3.2 4.5 87 0.9 S 11 15 6 8 - - 0.6
28/04:30am 7.4 4.6 5.0 85 1.1 S 9 13 5 7 - - 0.6
28/04:00am 8.0 5.3 5.6 85 1.1 SSE 9 13 5 7 - - 0.6
28/03:30am 8.3 5.3 5.8 84 1.2 SSE 11 15 6 8 - - 0.6
28/03:00am 8.3 5.3 5.9 85 1.1 S 11 15 6 8 - - 0.6
28/02:30am 8.3 5.3 5.9 85 1.1 SSE 11 15 6 8 - - 0.6
28/02:00am 8.2 5.2 6.0 86 1.0 SE 11 17 6 9 - - 0.6
28/01:30am 8.1 5.1 6.2 88 0.9 SSE 11 15 6 8 - - 0.6
28/01:00am 8.1 5.6 6.7 91 0.7 SSE 9 13 5 7 - - 0.6
28/12:30am 8.1 5.6 6.7 91 0.7 SSE 9 11 5 6 - - 0.6
28/12:00am 8.2 6.7 6.8 91 0.7 SE 4 6 2 3 - - 0.4
 
Date/Time
EST
Temp
°C
App
Temp
°C
Dew
Point
Rel
Hum
%
Delta-T
°C
Wind Press
QNH
hPa
Press
MSL
hPa
Rain
since 9 am
mm
Dir
 
Spd
km/h
Gust
km/h
Spd
kts
Gust
kts
27/11:30pm 8.0 6.1 6.6 91 0.7 SE 6 9 3 5 - - 0.4
27/11:00pm 8.1 6.6 6.9 92 0.6 E 4 6 2 3 - - 0.4
27/10:30pm 8.2 7.5 6.8 91 0.7 CALM 0 0 0 0 - - 0.2
27/10:00pm 8.3 7.5 6.6 89 0.8 CALM 0 0 0 0 - - 0.2
27/09:30pm 8.4 6.7 6.0 85 1.1 NNE 4 7 2 4 - - 0.0
27/09:00pm 8.6 7.3 5.9 83 1.2 ENE 2 4 1 2 - - 0.0
27/08:30pm 8.7 7.7 5.8 82 1.3 CALM 0 4 0 2 - - 0.0
27/08:00pm 8.5 7.5 5.6 82 1.3 CALM 0 0 0 0 - - 0.0
27/07:30pm 8.8 7.0 5.2 78 1.6 ESE 4 6 2 3 - - 0.0
27/07:00pm 8.7 6.5 5.1 78 1.6 E 6 6 3 3 - - 0.0
27/06:30pm 9.3 7.5 5.3 76 1.8 E 4 4 2 2 - - 0.0
27/06:00pm 10.1 8.2 4.9 70 2.4 E 4 7 2 4 - - 0.0
27/05:30pm 9.6 8.0 4.6 71 2.3 N 2 4 1 2 - - 0.0
27/05:00pm 10.4 8.8 4.5 67 2.7 N 2 2 1 1 - - 0.0
27/04:30pm 11.5 9.9 4.7 63 3.1 N 2 4 1 2 - - 0.0
27/04:00pm 12.4 10.3 3.9 56 3.9 NNW 4 6 2 3 - - 0.0
27/03:30pm 12.8 11.2 4.5 57 3.9 SW 2 4 1 2 - - 0.0
27/03:00pm 12.6 10.7 4.8 59 3.6 SW 4 6 2 3 - - 0.0
27/02:30pm 12.4 10.0 5.1 61 3.4 SW 7 13 4 7 - - 0.0
27/02:00pm 12.8 10.4 5.2 60 3.6 SW 7 11 4 6 - - 0.0
27/01:30pm 12.5 10.1 5.2 61 3.4 WSW 7 13 4 7 - - 0.0
27/01:00pm 12.3 10.2 5.7 64 3.1 W 6 13 3 7 - - 0.0
27/12:30pm 11.8 9.0 5.2 64 3.1 WSW 9 17 5 9 - - 0.0
27/12:00pm 11.6 9.5 6.5 71 2.4 W 7 13 4 7 - - 0.0
27/11:30am 11.0 9.0 7.1 77 1.9 WSW 7 11 4 6 - - 0.0
27/11:00am 10.1 7.2 6.6 79 1.7 SW 11 20 6 11 - - 0.0
27/10:30am 10.0 7.2 7.1 82 1.4 SW 11 19 6 10 - - 0.0
27/10:00am 9.6 7.2 7.2 85 1.2 SW 9 17 5 9 - - 0.0
27/09:30am 8.7 6.6 6.5 86 1.0 SW 7 13 4 7 - - 0.0
27/09:00am 7.9 5.8 6.5 91 0.7 WSW 7 13 4 7 - - 0.2
27/08:30am 6.9 4.8 6.6 98 0.1 WSW 7 11 4 6 - - 0.2
27/08:00am 5.8 3.7 5.7 99 0.0 WSW 6 11 3 6 - - 0.2
27/07:30am 4.1 2.4 4.0 99 0.0 SW 2 6 1 3 - - 0.2
27/07:00am 4.3 3.0 4.2 99 0.0 CALM 0 0 0 0 - - 0.2
27/06:30am 3.2 1.3 2.8 97 0.2 SW 2 4 1 2 - - 0.2
27/06:00am 3.4 1.8 2.7 95 0.3 CALM 0 0 0 0 - - 0.2
27/05:30am 4.8 2.4 4.2 96 0.3 SW 6 9 3 5 - - 0.2
27/05:00am 5.4 3.1 4.8 96 0.3 SW 6 11 3 6 - - 0.2
27/04:30am 5.5 3.3 5.1 97 0.2 WSW 6 7 3 4 - - 0.2
27/04:00am 4.8 2.4 4.5 98 0.1 WSW 6 9 3 5 - - 0.2
27/03:30am 3.5 2.0 3.1 97 0.2 CALM 0 0 0 0 - - 0.2
27/03:00am 4.0 2.2 3.4 96 0.3 SW 2 6 1 3 - - 0.2
27/02:30am 4.5 1.8 3.9 96 0.3 SSW 7 9 4 5 - - 0.2
27/02:00am 4.9 2.3 4.3 96 0.3 SW 7 11 4 6 - - 0.2
27/01:30am 4.6 2.1 3.9 95 0.3 SSW 6 7 3 4 - - 0.2
27/01:00am 5.5 2.6 4.9 96 0.3 SW 9 13 5 7 - - 0.2
27/12:30am 5.1 1.8 4.4 95 0.3 SSW 11 13 6 7 - - 0.2
27/12:00am 6.0 3.2 5.0 93 0.4 SW 9 15 5 8 - - 0.2
 
Date/Time
EST
Temp
°C
App
Temp
°C
Dew
Point
Rel
Hum
%
Delta-T
°C
Wind Press
QNH
hPa
Press
MSL
hPa
Rain
since 9 am
mm
Dir
 
Spd
km/h
Gust
km/h
Spd
kts
Gust
kts
26/11:30pm 6.3 3.5 5.3 93 0.4 SW 9 15 5 8 - - 0.2
26/11:00pm 6.0 3.2 5.0 93 0.4 SW 9 13 5 7 - - 0.2
26/10:30pm 6.1 3.7 5.2 94 0.4 SW 7 11 4 6 - - 0.2
26/10:00pm 5.2 2.6 4.0 92 0.5 SW 7 9 4 5 - - 0.2
26/09:30pm 6.4 4.5 4.7 89 0.8 SW 4 7 2 4 - - 0.0
26/09:00pm 6.7 4.2 4.7 87 0.9 SW 7 11 4 6 - - 0.0
26/08:30pm 7.2 4.0 5.0 86 1.0 SW 11 17 6 9 - - 0.0
26/08:00pm 7.1 4.2 4.9 86 1.0 SW 9 11 5 6 - - 0.0
26/07:30pm 7.5 5.2 4.8 83 1.2 WSW 6 9 3 5 - - 0.0
26/07:00pm 7.8 5.6 5.1 83 1.2 SW 6 9 3 5 - - 0.0
26/06:30pm 8.0 5.8 5.1 82 1.3 SW 6 9 3 5 - - 0.0
26/06:00pm 9.4 5.1 5.4 76 1.8 SW 17 22 9 12 - - 0.0
26/05:30pm 9.6 5.1 6.3 80 1.6 SSW 19 28 10 15 - - 0.0
26/05:00pm 10.2 7.6 6.0 75 2.0 SW 9 17 5 9 - - 0.0
26/04:30pm 11.0 7.8 6.9 76 2.0 SW 13 22 7 12 - - 0.0
26/04:00pm 11.2 7.0 7.5 78 1.8 SW 19 30 10 16 - - 0.0
26/03:30pm 11.0 7.1 7.1 77 1.9 WSW 17 28 9 15 - - 0.0
26/03:00pm 11.6 8.0 6.9 73 2.3 SW 15 24 8 13 - - 0.0
26/02:30pm 11.8 7.8 6.7 71 2.5 SSW 17 26 9 14 - - 0.0
26/02:00pm 11.3 5.9 6.2 71 2.4 SSW 24 33 13 18 - - 0.0
26/01:30pm 11.8 7.0 7.3 74 2.2 SSW 22 32 12 17 - - 0.0
26/01:00pm 11.9 9.3 9.3 84 1.3 SSW 13 20 7 11 - - 0.0
26/12:30pm 11.3 9.3 10.2 93 0.6 WSW 11 17 6 9 - - 0.0
26/12:00pm 12.3 10.8 10.5 89 0.9 WSW 9 19 5 10 - - 0.0
26/11:30am 11.1 9.7 10.9 99 0.1 WSW 9 15 5 8 - - 0.0
26/11:00am 10.7 9.2 10.5 99 0.1 WSW 9 17 5 9 - - 0.0
26/10:30am 9.8 9.4 9.7 99 0.1 WNW 2 6 1 3 - - 0.0
26/10:00am 9.3 8.4 9.2 99 0.1 WNW 4 6 2 3 - - 0.0
26/09:30am 9.1 8.5 9.0 99 0.0 NNE 2 6 1 3 - - 0.0
26/09:00am 8.8 8.1 8.7 99 0.0 NE 2 4 1 2 - - 13.2
26/08:30am 8.7 8.4 8.6 99 0.0 CALM 0 2 0 1 - - 13.2
26/08:00am 8.6 8.3 8.5 99 0.0 CALM 0 4 0 2 - - 13.0
26/07:30am 8.5 7.4 8.4 99 0.0 NNE 4 6 2 3 - - 12.6
26/07:00am 8.4 6.9 8.3 99 0.0 N 6 9 3 5 - - 12.2
26/06:30am 8.4 6.9 8.3 99 0.0 NNE 6 9 3 5 - - 12.0
26/06:00am 8.3 6.7 8.2 99 0.0 NNE 6 11 3 6 - - 12.0
26/05:30am 8.2 6.4 8.1 99 0.0 NNE 7 13 4 7 - - 11.8
26/05:00am 8.2 6.4 8.1 99 0.0 NNE 7 11 4 6 - - 11.4
26/04:30am 8.2 5.7 8.1 99 0.0 NNE 11 20 6 11 - - 11.0
26/04:00am 8.2 5.7 8.1 99 0.0 NNE 11 20 6 11 - - 10.8
26/03:30am 8.2 6.1 8.1 99 0.0 NNE 9 17 5 9 - - 10.4
26/03:00am 8.1 5.6 8.0 99 0.0 NNE 11 17 6 9 - - 10.2
26/02:30am 8.1 5.9 8.0 99 0.0 NNE 9 13 5 7 - - 10.0
26/02:00am 8.1 5.6 8.0 99 0.0 NNE 11 17 6 9 - - 9.6
26/01:30am 8.1 5.2 8.0 99 0.0 NNE 13 20 7 11 - - 9.4
26/01:00am 8.3 5.8 8.2 99 0.0 NNE 11 20 6 11 - - 9.2
26/12:30am 8.3 5.4 8.2 99 0.0 NNE 13 22 7 12 - - 9.0
26/12:00am 8.4 5.9 8.3 99 0.0 NNE 11 19 6 10 - - 8.6
 
Date/Time
EST
Temp
°C
App
Temp
°C
Dew
Point
Rel
Hum
%
Delta-T
°C
Wind Press
QNH
hPa
Press
MSL
hPa
Rain
since 9 am
mm
Dir
 
Spd
km/h
Gust
km/h
Spd
kts
Gust
kts
25/11:30pm 8.4 5.9 8.3 99 0.0 NNE 11 19 6 10 - - 8.0
25/11:00pm 8.4 5.9 8.3 99 0.0 NNE 11 19 6 10 - - 6.6
25/10:30pm 8.6 5.4 8.5 99 0.0 N 15 22 8 12 - - 5.0
25/10:00pm 8.7 6.3 8.6 99 0.0 NNE 11 15 6 8 - - 3.0
25/09:30pm 8.7 6.3 8.6 99 0.0 NNE 11 20 6 11 - - 2.6
25/09:00pm 8.7 5.9 8.6 99 0.0 NNE 13 20 7 11 - - 2.4
25/08:30pm 8.6 5.0 8.5 99 0.0 NNE 17 32 9 17 - - 2.0
25/08:00pm 8.8 5.7 8.7 99 0.0 NNE 15 26 8 14 - - 1.8
25/07:30pm 8.9 5.7 8.6 98 0.1 N 15 22 8 12 - - 1.6
25/07:00pm 9.2 6.9 9.1 99 0.0 N 11 19 6 10 - - 1.4
25/06:30pm 9.5 8.0 9.2 98 0.2 N 7 13 4 7 - - 0.8
25/06:00pm 9.6 8.1 9.0 96 0.3 N 7 13 4 7 - - 0.8
25/05:30pm 9.8 7.9 8.9 94 0.4 NNW 9 15 5 8 - - 0.8
25/05:00pm 9.9 8.0 9.0 94 0.5 N 9 15 5 8 - - 0.8
25/04:30pm 9.9 7.2 9.0 94 0.5 N 13 19 7 10 - - 0.8
25/04:00pm 10.0 6.9 8.9 93 0.6 N 15 22 8 12 - - 0.8
25/03:30pm 10.4 6.9 8.7 89 0.8 N 17 22 9 12 - - 0.4
25/03:00pm 11.4 6.4 7.9 79 1.7 N 24 37 13 20 - - 0.2
25/02:30pm 12.5 5.6 6.5 67 2.9 N 32 43 17 23 - - 0.0

Other Formats:

Comma delimited format used in spreadsheet applications
http://www.bom.gov.au/fwo/IDV60801/IDV60801.94859.axf

JavaScript Object Notation format (JSON) in row-major order
http://www.bom.gov.au/fwo/IDV60801/IDV60801.94859.json